sensor_id;sensor_type;location;lat;lon;timestamp;P1;durP1;ratioP1;P2;durP2;ratioP2
52946;SDS011;68773;40.400;17.260;2023-08-24T00:00:41;11.15;;;9.95;;
52946;SDS011;68773;40.400;17.260;2023-08-24T00:03:10;12.75;;;10.27;;
52946;SDS011;68773;40.400;17.260;2023-08-24T00:05:36;14.02;;;10.43;;
52946;SDS011;68773;40.400;17.260;2023-08-24T00:08:06;16.27;;;10.27;;
52946;SDS011;68773;40.400;17.260;2023-08-24T00:10:35;13.82;;;10.63;;
52946;SDS011;68773;40.400;17.260;2023-08-24T00:13:02;13.25;;;10.52;;
52946;SDS011;68773;40.400;17.260;2023-08-24T00:15:29;13.85;;;10.50;;
52946;SDS011;68773;40.400;17.260;2023-08-24T00:17:55;12.07;;;10.02;;
52946;SDS011;68773;40.400;17.260;2023-08-24T00:20:21;12.73;;;10.25;;
52946;SDS011;68773;40.400;17.260;2023-08-24T00:22:48;12.65;;;10.05;;
52946;SDS011;68773;40.400;17.260;2023-08-24T00:25:14;14.25;;;10.82;;
52946;SDS011;68773;40.400;17.260;2023-08-24T00:27:40;13.50;;;10.25;;
52946;SDS011;68773;40.400;17.260;2023-08-24T00:30:06;13.30;;;11.13;;
52946;SDS011;68773;40.400;17.260;2023-08-24T00:32:33;12.20;;;10.68;;
52946;SDS011;68773;40.400;17.260;2023-08-24T00:35:03;15.45;;;11.10;;
52946;SDS011;68773;40.400;17.260;2023-08-24T00:37:31;12.50;;;11.07;;
52946;SDS011;68773;40.400;17.260;2023-08-24T00:39:59;11.48;;;10.27;;
52946;SDS011;68773;40.400;17.260;2023-08-24T00:42:26;15.80;;;10.90;;
52946;SDS011;68773;40.400;17.260;2023-08-24T00:44:52;12.43;;;10.73;;
52946;SDS011;68773;40.400;17.260;2023-08-24T00:47:18;13.05;;;10.95;;
52946;SDS011;68773;40.400;17.260;2023-08-24T00:49:45;13.70;;;10.68;;
52946;SDS011;68773;40.400;17.260;2023-08-24T00:52:11;12.38;;;10.18;;
52946;SDS011;68773;40.400;17.260;2023-08-24T00:54:37;13.70;;;10.38;;
52946;SDS011;68773;40.400;17.260;2023-08-24T00:57:05;18.63;;;10.48;;
52946;SDS011;68773;40.400;17.260;2023-08-24T00:59:32;15.02;;;10.07;;
52946;SDS011;68773;40.400;17.260;2023-08-24T01:01:58;14.13;;;10.50;;
52946;SDS011;68773;40.400;17.260;2023-08-24T01:04:25;15.98;;;11.43;;
52946;SDS011;68773;40.400;17.260;2023-08-24T01:06:51;12.68;;;10.30;;
52946;SDS011;68773;40.400;17.260;2023-08-24T01:09:18;13.68;;;10.27;;
52946;SDS011;68773;40.400;17.260;2023-08-24T01:16:54;12.88;;;10.57;;
52946;SDS011;68773;40.400;17.260;2023-08-24T01:19:43;13.45;;;10.93;;
52946;SDS011;68773;40.400;17.260;2023-08-24T01:24:53;14.77;;;11.57;;
52946;SDS011;68773;40.400;17.260;2023-08-24T01:27:21;14.25;;;11.55;;
52946;SDS011;68773;40.400;17.260;2023-08-24T01:29:47;14.40;;;11.63;;
52946;SDS011;68773;40.400;17.260;2023-08-24T01:32:13;12.57;;;11.10;;
52946;SDS011;68773;40.400;17.260;2023-08-24T01:34:39;13.85;;;11.38;;
52946;SDS011;68773;40.400;17.260;2023-08-24T01:37:06;15.93;;;11.48;;
52946;SDS011;68773;40.400;17.260;2023-08-24T01:39:39;14.50;;;12.05;;
52946;SDS011;68773;40.400;17.260;2023-08-24T01:42:07;16.67;;;12.70;;
52946;SDS011;68773;40.400;17.260;2023-08-24T01:44:35;16.73;;;12.10;;
52946;SDS011;68773;40.400;17.260;2023-08-24T01:47:03;14.88;;;11.68;;
52946;SDS011;68773;40.400;17.260;2023-08-24T01:49:30;16.98;;;11.95;;
52946;SDS011;68773;40.400;17.260;2023-08-24T01:51:57;15.45;;;12.10;;
52946;SDS011;68773;40.400;17.260;2023-08-24T01:54:24;14.50;;;11.73;;
52946;SDS011;68773;40.400;17.260;2023-08-24T01:56:50;14.55;;;11.50;;
52946;SDS011;68773;40.400;17.260;2023-08-24T01:59:16;17.90;;;12.55;;
52946;SDS011;68773;40.400;17.260;2023-08-24T02:01:42;15.32;;;12.20;;
52946;SDS011;68773;40.400;17.260;2023-08-24T02:04:08;14.68;;;11.73;;
52946;SDS011;68773;40.400;17.260;2023-08-24T02:06:34;15.60;;;12.57;;
52946;SDS011;68773;40.400;17.260;2023-08-24T02:09:00;17.25;;;13.05;;
52946;SDS011;68773;40.400;17.260;2023-08-24T02:11:26;15.40;;;12.75;;
52946;SDS011;68773;40.400;17.260;2023-08-24T02:13:52;16.52;;;12.88;;
52946;SDS011;68773;40.400;17.260;2023-08-24T02:16:18;17.92;;;12.73;;
52946;SDS011;68773;40.400;17.260;2023-08-24T02:18:44;18.25;;;13.20;;
52946;SDS011;68773;40.400;17.260;2023-08-24T02:21:11;15.73;;;12.05;;
52946;SDS011;68773;40.400;17.260;2023-08-24T02:23:37;18.63;;;12.48;;
52946;SDS011;68773;40.400;17.260;2023-08-24T02:26:03;16.60;;;12.23;;
52946;SDS011;68773;40.400;17.260;2023-08-24T02:28:29;14.50;;;12.35;;
52946;SDS011;68773;40.400;17.260;2023-08-24T02:31:04;15.68;;;13.02;;
52946;SDS011;68773;40.400;17.260;2023-08-24T02:33:31;16.77;;;12.93;;
52946;SDS011;68773;40.400;17.260;2023-08-24T02:35:57;16.70;;;12.93;;
52946;SDS011;68773;40.400;17.260;2023-08-24T02:38:23;16.23;;;12.77;;
52946;SDS011;68773;40.400;17.260;2023-08-24T02:40:59;15.43;;;12.90;;
52946;SDS011;68773;40.400;17.260;2023-08-24T02:43:26;18.17;;;13.00;;
52946;SDS011;68773;40.400;17.260;2023-08-24T02:45:53;15.38;;;12.10;;
52946;SDS011;68773;40.400;17.260;2023-08-24T02:48:19;13.63;;;12.02;;
52946;SDS011;68773;40.400;17.260;2023-08-24T02:50:45;14.68;;;12.05;;
52946;SDS011;68773;40.400;17.260;2023-08-24T02:53:12;15.98;;;12.00;;
52946;SDS011;68773;40.400;17.260;2023-08-24T02:55:39;14.65;;;11.70;;
52946;SDS011;68773;40.400;17.260;2023-08-24T02:58:05;14.23;;;11.07;;
52946;SDS011;68773;40.400;17.260;2023-08-24T03:00:31;13.80;;;11.55;;
52946;SDS011;68773;40.400;17.260;2023-08-24T03:02:57;15.23;;;10.88;;
52946;SDS011;68773;40.400;17.260;2023-08-24T03:05:24;12.40;;;10.82;;
52946;SDS011;68773;40.400;17.260;2023-08-24T03:07:50;14.40;;;11.95;;
52946;SDS011;68773;40.400;17.260;2023-08-24T03:10:16;12.77;;;11.27;;
52946;SDS011;68773;40.400;17.260;2023-08-24T03:12:42;13.05;;;10.75;;
52946;SDS011;68773;40.400;17.260;2023-08-24T03:15:08;14.73;;;10.88;;
52946;SDS011;68773;40.400;17.260;2023-08-24T03:17:35;15.75;;;11.63;;
52946;SDS011;68773;40.400;17.260;2023-08-24T03:20:01;16.38;;;11.95;;
52946;SDS011;68773;40.400;17.260;2023-08-24T03:22:27;13.55;;;11.05;;
52946;SDS011;68773;40.400;17.260;2023-08-24T03:24:53;12.95;;;10.77;;
52946;SDS011;68773;40.400;17.260;2023-08-24T03:27:19;12.75;;;11.43;;
52946;SDS011;68773;40.400;17.260;2023-08-24T03:29:45;17.65;;;12.10;;
52946;SDS011;68773;40.400;17.260;2023-08-24T03:32:11;15.13;;;11.30;;
52946;SDS011;68773;40.400;17.260;2023-08-24T03:34:37;13.88;;;11.32;;
52946;SDS011;68773;40.400;17.260;2023-08-24T03:37:03;13.50;;;10.80;;
52946;SDS011;68773;40.400;17.260;2023-08-24T03:39:29;15.60;;;11.20;;
52946;SDS011;68773;40.400;17.260;2023-08-24T03:41:55;15.10;;;11.30;;
52946;SDS011;68773;40.400;17.260;2023-08-24T03:44:21;14.32;;;11.10;;
52946;SDS011;68773;40.400;17.260;2023-08-24T03:46:47;12.70;;;11.20;;
52946;SDS011;68773;40.400;17.260;2023-08-24T03:49:14;14.00;;;10.93;;
52946;SDS011;68773;40.400;17.260;2023-08-24T03:51:40;14.25;;;11.63;;
52946;SDS011;68773;40.400;17.260;2023-08-24T03:54:06;13.38;;;10.68;;
52946;SDS011;68773;40.400;17.260;2023-08-24T03:56:32;14.68;;;10.85;;
52946;SDS011;68773;40.400;17.260;2023-08-24T03:58:58;12.00;;;10.48;;
52946;SDS011;68773;40.400;17.260;2023-08-24T04:01:24;11.60;;;10.07;;
52946;SDS011;68773;40.400;17.260;2023-08-24T04:03:50;15.70;;;11.02;;
52946;SDS011;68773;40.400;17.260;2023-08-24T04:06:17;14.38;;;11.32;;
52946;SDS011;68773;40.400;17.260;2023-08-24T04:08:46;13.10;;;10.73;;
52946;SDS011;68773;40.400;17.260;2023-08-24T04:11:12;12.73;;;11.32;;
52946;SDS011;68773;40.400;17.260;2023-08-24T04:13:38;12.52;;;10.30;;
52946;SDS011;68773;40.400;17.260;2023-08-24T04:16:05;13.80;;;10.38;;
52946;SDS011;68773;40.400;17.260;2023-08-24T04:18:31;11.25;;;9.98;;
52946;SDS011;68773;40.400;17.260;2023-08-24T04:20:57;14.80;;;10.88;;
52946;SDS011;68773;40.400;17.260;2023-08-24T04:23:23;13.30;;;10.57;;
52946;SDS011;68773;40.400;17.260;2023-08-24T04:25:51;13.13;;;10.77;;
52946;SDS011;68773;40.400;17.260;2023-08-24T04:28:17;13.00;;;10.27;;
52946;SDS011;68773;40.400;17.260;2023-08-24T04:30:53;13.35;;;10.45;;
52946;SDS011;68773;40.400;17.260;2023-08-24T04:33:19;12.20;;;10.15;;
52946;SDS011;68773;40.400;17.260;2023-08-24T04:35:47;12.50;;;10.00;;
52946;SDS011;68773;40.400;17.260;2023-08-24T04:38:13;11.95;;;10.30;;
52946;SDS011;68773;40.400;17.260;2023-08-24T04:43:11;12.88;;;10.60;;
52946;SDS011;68773;40.400;17.260;2023-08-24T04:45:37;14.35;;;10.73;;
52946;SDS011;68773;40.400;17.260;2023-08-24T04:48:03;13.27;;;11.13;;
52946;SDS011;68773;40.400;17.260;2023-08-24T04:50:29;12.32;;;10.02;;
52946;SDS011;68773;40.400;17.260;2023-08-24T04:52:55;17.50;;;10.65;;
52946;SDS011;68773;40.400;17.260;2023-08-24T04:55:22;16.63;;;10.50;;
52946;SDS011;68773;40.400;17.260;2023-08-24T04:57:48;15.57;;;11.40;;
52946;SDS011;68773;40.400;17.260;2023-08-24T05:00:15;12.68;;;10.35;;
52946;SDS011;68773;40.400;17.260;2023-08-24T05:02:44;15.10;;;11.02;;
52946;SDS011;68773;40.400;17.260;2023-08-24T05:05:10;16.42;;;11.68;;
52946;SDS011;68773;40.400;17.260;2023-08-24T05:07:39;14.77;;;10.50;;
52946;SDS011;68773;40.400;17.260;2023-08-24T05:10:06;16.67;;;11.23;;
52946;SDS011;68773;40.400;17.260;2023-08-24T05:12:32;15.40;;;11.05;;
52946;SDS011;68773;40.400;17.260;2023-08-24T05:15:02;15.85;;;10.82;;
52946;SDS011;68773;40.400;17.260;2023-08-24T05:17:28;13.75;;;10.82;;
52946;SDS011;68773;40.400;17.260;2023-08-24T05:19:54;14.50;;;12.00;;
52946;SDS011;68773;40.400;17.260;2023-08-24T05:22:20;14.77;;;11.25;;
52946;SDS011;68773;40.400;17.260;2023-08-24T05:24:46;15.50;;;11.93;;
52946;SDS011;68773;40.400;17.260;2023-08-24T05:27:12;16.13;;;11.88;;
52946;SDS011;68773;40.400;17.260;2023-08-24T05:29:39;17.45;;;11.95;;
52946;SDS011;68773;40.400;17.260;2023-08-24T05:32:05;17.42;;;11.45;;
52946;SDS011;68773;40.400;17.260;2023-08-24T05:34:31;16.10;;;11.13;;
52946;SDS011;68773;40.400;17.260;2023-08-24T05:36:57;14.45;;;11.82;;
52946;SDS011;68773;40.400;17.260;2023-08-24T05:39:23;18.00;;;11.82;;
52946;SDS011;68773;40.400;17.260;2023-08-24T05:41:52;13.57;;;10.68;;
52946;SDS011;68773;40.400;17.260;2023-08-24T05:44:19;16.23;;;11.07;;
52946;SDS011;68773;40.400;17.260;2023-08-24T05:46:46;15.13;;;10.98;;
52946;SDS011;68773;40.400;17.260;2023-08-24T05:49:12;13.57;;;11.18;;
52946;SDS011;68773;40.400;17.260;2023-08-24T05:51:38;15.43;;;11.63;;
52946;SDS011;68773;40.400;17.260;2023-08-24T05:54:05;13.20;;;10.02;;
52946;SDS011;68773;40.400;17.260;2023-08-24T05:56:31;13.38;;;10.68;;
52946;SDS011;68773;40.400;17.260;2023-08-24T05:58:57;15.57;;;10.18;;
52946;SDS011;68773;40.400;17.260;2023-08-24T06:01:24;12.90;;;10.63;;
52946;SDS011;68773;40.400;17.260;2023-08-24T06:03:50;14.48;;;10.38;;
52946;SDS011;68773;40.400;17.260;2023-08-24T06:06:16;14.88;;;11.00;;
52946;SDS011;68773;40.400;17.260;2023-08-24T06:08:42;16.88;;;10.68;;
52946;SDS011;68773;40.400;17.260;2023-08-24T06:11:08;15.40;;;10.75;;
52946;SDS011;68773;40.400;17.260;2023-08-24T06:13:35;14.02;;;10.20;;
52946;SDS011;68773;40.400;17.260;2023-08-24T06:16:01;14.45;;;10.90;;
52946;SDS011;68773;40.400;17.260;2023-08-24T06:18:27;12.60;;;10.38;;
52946;SDS011;68773;40.400;17.260;2023-08-24T06:20:53;12.98;;;10.93;;
52946;SDS011;68773;40.400;17.260;2023-08-24T06:23:19;15.20;;;11.07;;
52946;SDS011;68773;40.400;17.260;2023-08-24T06:25:46;16.00;;;10.98;;
52946;SDS011;68773;40.400;17.260;2023-08-24T06:28:13;13.75;;;10.02;;
52946;SDS011;68773;40.400;17.260;2023-08-24T06:30:40;15.43;;;11.32;;
52946;SDS011;68773;40.400;17.260;2023-08-24T06:33:06;16.20;;;11.15;;
52946;SDS011;68773;40.400;17.260;2023-08-24T06:35:33;15.02;;;11.40;;
52946;SDS011;68773;40.400;17.260;2023-08-24T06:37:59;17.52;;;11.70;;
52946;SDS011;68773;40.400;17.260;2023-08-24T06:40:25;17.27;;;12.02;;
52946;SDS011;68773;40.400;17.260;2023-08-24T06:42:51;15.88;;;11.73;;
52946;SDS011;68773;40.400;17.260;2023-08-24T06:45:17;16.35;;;11.85;;
52946;SDS011;68773;40.400;17.260;2023-08-24T06:47:44;15.73;;;11.15;;
52946;SDS011;68773;40.400;17.260;2023-08-24T06:50:10;16.52;;;12.30;;
52946;SDS011;68773;40.400;17.260;2023-08-24T06:52:36;15.63;;;11.52;;
52946;SDS011;68773;40.400;17.260;2023-08-24T06:55:02;16.63;;;11.38;;
52946;SDS011;68773;40.400;17.260;2023-08-24T06:57:28;13.25;;;10.80;;
52946;SDS011;68773;40.400;17.260;2023-08-24T06:59:55;14.95;;;11.32;;
52946;SDS011;68773;40.400;17.260;2023-08-24T07:02:21;17.88;;;11.20;;
52946;SDS011;68773;40.400;17.260;2023-08-24T07:04:47;13.10;;;10.50;;
52946;SDS011;68773;40.400;17.260;2023-08-24T07:07:13;11.85;;;9.90;;
52946;SDS011;68773;40.400;17.260;2023-08-24T07:09:40;14.07;;;10.20;;
52946;SDS011;68773;40.400;17.260;2023-08-24T07:12:06;10.75;;;9.65;;
52946;SDS011;68773;40.400;17.260;2023-08-24T07:14:35;13.63;;;9.98;;
52946;SDS011;68773;40.400;17.260;2023-08-24T07:17:01;16.10;;;10.35;;
52946;SDS011;68773;40.400;17.260;2023-08-24T07:19:27;15.63;;;9.75;;
52946;SDS011;68773;40.400;17.260;2023-08-24T07:21:53;14.68;;;9.73;;
52946;SDS011;68773;40.400;17.260;2023-08-24T07:24:19;14.27;;;10.43;;
52946;SDS011;68773;40.400;17.260;2023-08-24T07:26:46;13.13;;;10.20;;
52946;SDS011;68773;40.400;17.260;2023-08-24T07:29:12;12.75;;;10.13;;
52946;SDS011;68773;40.400;17.260;2023-08-24T07:31:38;15.07;;;9.63;;
52946;SDS011;68773;40.400;17.260;2023-08-24T07:34:04;13.98;;;10.13;;
52946;SDS011;68773;40.400;17.260;2023-08-24T07:36:30;11.75;;;9.80;;
52946;SDS011;68773;40.400;17.260;2023-08-24T07:38:56;11.35;;;9.02;;
52946;SDS011;68773;40.400;17.260;2023-08-24T07:41:22;13.48;;;9.38;;
52946;SDS011;68773;40.400;17.260;2023-08-24T07:43:48;15.82;;;9.73;;
52946;SDS011;68773;40.400;17.260;2023-08-24T07:46:14;18.10;;;10.70;;
52946;SDS011;68773;40.400;17.260;2023-08-24T07:48:40;14.80;;;10.88;;
52946;SDS011;68773;40.400;17.260;2023-08-24T07:51:07;15.18;;;10.52;;
52946;SDS011;68773;40.400;17.260;2023-08-24T07:53:33;13.82;;;10.13;;
52946;SDS011;68773;40.400;17.260;2023-08-24T07:56:00;15.93;;;10.77;;
52946;SDS011;68773;40.400;17.260;2023-08-24T07:58:26;14.20;;;9.95;;
52946;SDS011;68773;40.400;17.260;2023-08-24T08:00:53;14.65;;;9.35;;
52946;SDS011;68773;40.400;17.260;2023-08-24T08:03:19;18.10;;;9.60;;
52946;SDS011;68773;40.400;17.260;2023-08-24T08:05:46;11.85;;;9.05;;
52946;SDS011;68773;40.400;17.260;2023-08-24T08:08:15;13.77;;;10.18;;
52946;SDS011;68773;40.400;17.260;2023-08-24T08:10:42;14.77;;;11.00;;
52946;SDS011;68773;40.400;17.260;2023-08-24T08:13:08;14.48;;;10.43;;
52946;SDS011;68773;40.400;17.260;2023-08-24T08:15:37;11.43;;;8.82;;
52946;SDS011;68773;40.400;17.260;2023-08-24T08:18:04;13.40;;;9.18;;
52946;SDS011;68773;40.400;17.260;2023-08-24T08:20:30;12.13;;;8.32;;
52946;SDS011;68773;40.400;17.260;2023-08-24T08:22:57;15.50;;;9.57;;
52946;SDS011;68773;40.400;17.260;2023-08-24T08:25:23;14.05;;;9.07;;
52946;SDS011;68773;40.400;17.260;2023-08-24T08:27:49;14.88;;;9.45;;
52946;SDS011;68773;40.400;17.260;2023-08-24T08:30:15;12.60;;;10.38;;
52946;SDS011;68773;40.400;17.260;2023-08-24T08:32:41;17.33;;;10.13;;
52946;SDS011;68773;40.400;17.260;2023-08-24T08:35:08;12.80;;;7.82;;
52946;SDS011;68773;40.400;17.260;2023-08-24T08:37:34;13.60;;;8.27;;
52946;SDS011;68773;40.400;17.260;2023-08-24T08:40:02;11.38;;;7.97;;
52946;SDS011;68773;40.400;17.260;2023-08-24T08:42:31;12.40;;;8.25;;
52946;SDS011;68773;40.400;17.260;2023-08-24T08:44:58;10.10;;;8.23;;
52946;SDS011;68773;40.400;17.260;2023-08-24T08:47:27;11.02;;;7.85;;
52946;SDS011;68773;40.400;17.260;2023-08-24T08:49:53;11.07;;;8.07;;
52946;SDS011;68773;40.400;17.260;2023-08-24T08:52:21;11.60;;;7.65;;
52946;SDS011;68773;40.400;17.260;2023-08-24T08:54:47;10.30;;;7.53;;
52946;SDS011;68773;40.400;17.260;2023-08-24T08:57:14;12.18;;;8.27;;
52946;SDS011;68773;40.400;17.260;2023-08-24T08:59:41;13.30;;;7.32;;
52946;SDS011;68773;40.400;17.260;2023-08-24T09:02:07;13.05;;;7.43;;
52946;SDS011;68773;40.400;17.260;2023-08-24T09:04:34;12.35;;;6.85;;
52946;SDS011;68773;40.400;17.260;2023-08-24T09:07:01;8.95;;;6.47;;
52946;SDS011;68773;40.400;17.260;2023-08-24T09:09:29;9.23;;;6.45;;
52946;SDS011;68773;40.400;17.260;2023-08-24T09:11:55;9.52;;;6.43;;
52946;SDS011;68773;40.400;17.260;2023-08-24T09:14:22;9.55;;;6.43;;
52946;SDS011;68773;40.400;17.260;2023-08-24T09:16:48;8.68;;;6.03;;
52946;SDS011;68773;40.400;17.260;2023-08-24T09:19:15;10.25;;;6.53;;
52946;SDS011;68773;40.400;17.260;2023-08-24T09:21:41;15.80;;;7.13;;
52946;SDS011;68773;40.400;17.260;2023-08-24T09:24:07;8.73;;;6.35;;
52946;SDS011;68773;40.400;17.260;2023-08-24T09:26:34;7.95;;;5.95;;
52946;SDS011;68773;40.400;17.260;2023-08-24T09:29:10;7.18;;;5.85;;
52946;SDS011;68773;40.400;17.260;2023-08-24T09:31:40;7.53;;;6.25;;
52946;SDS011;68773;40.400;17.260;2023-08-24T09:34:08;7.95;;;6.05;;
52946;SDS011;68773;40.400;17.260;2023-08-24T09:36:35;9.73;;;6.22;;
52946;SDS011;68773;40.400;17.260;2023-08-24T09:39:02;7.63;;;6.05;;
52946;SDS011;68773;40.400;17.260;2023-08-24T09:41:41;9.10;;;6.25;;
52946;SDS011;68773;40.400;17.260;2023-08-24T09:44:07;8.35;;;5.72;;
52946;SDS011;68773;40.400;17.260;2023-08-24T09:46:35;7.13;;;5.70;;
52946;SDS011;68773;40.400;17.260;2023-08-24T09:49:05;8.05;;;6.03;;
52946;SDS011;68773;40.400;17.260;2023-08-24T09:51:31;7.18;;;5.60;;
52946;SDS011;68773;40.400;17.260;2023-08-24T09:53:58;8.00;;;6.03;;
52946;SDS011;68773;40.400;17.260;2023-08-24T09:56:27;7.05;;;6.00;;
52946;SDS011;68773;40.400;17.260;2023-08-24T09:58:54;7.35;;;6.03;;
52946;SDS011;68773;40.400;17.260;2023-08-24T10:01:20;6.75;;;5.90;;
52946;SDS011;68773;40.400;17.260;2023-08-24T10:03:47;6.40;;;5.22;;
52946;SDS011;68773;40.400;17.260;2023-08-24T10:06:21;7.13;;;5.60;;
52946;SDS011;68773;40.400;17.260;2023-08-24T10:08:50;6.45;;;5.70;;
52946;SDS011;68773;40.400;17.260;2023-08-24T10:11:20;7.22;;;5.78;;
52946;SDS011;68773;40.400;17.260;2023-08-24T10:13:58;6.68;;;5.70;;
52946;SDS011;68773;40.400;17.260;2023-08-24T10:16:26;6.88;;;5.95;;
52946;SDS011;68773;40.400;17.260;2023-08-24T10:18:53;7.95;;;5.80;;
52946;SDS011;68773;40.400;17.260;2023-08-24T10:21:20;10.77;;;5.53;;
52946;SDS011;68773;40.400;17.260;2023-08-24T10:23:47;7.28;;;5.53;;
52946;SDS011;68773;40.400;17.260;2023-08-24T10:26:13;8.27;;;5.78;;
52946;SDS011;68773;40.400;17.260;2023-08-24T10:28:39;6.72;;;5.47;;
52946;SDS011;68773;40.400;17.260;2023-08-24T10:31:06;7.43;;;5.93;;
52946;SDS011;68773;40.400;17.260;2023-08-24T10:33:32;7.88;;;5.63;;
52946;SDS011;68773;40.400;17.260;2023-08-24T10:35:59;7.43;;;5.82;;
52946;SDS011;68773;40.400;17.260;2023-08-24T10:38:26;12.32;;;8.98;;
52946;SDS011;68773;40.400;17.260;2023-08-24T10:40:52;8.30;;;5.60;;
52946;SDS011;68773;40.400;17.260;2023-08-24T10:43:18;8.93;;;6.22;;
52946;SDS011;68773;40.400;17.260;2023-08-24T10:48:22;8.13;;;5.22;;
52946;SDS011;68773;40.400;17.260;2023-08-24T10:53:45;9.98;;;6.10;;
52946;SDS011;68773;40.400;17.260;2023-08-24T10:56:13;7.03;;;5.60;;
52946;SDS011;68773;40.400;17.260;2023-08-24T10:58:39;8.18;;;5.70;;
52946;SDS011;68773;40.400;17.260;2023-08-24T11:01:05;6.38;;;5.57;;
52946;SDS011;68773;40.400;17.260;2023-08-24T11:03:32;6.68;;;5.60;;
52946;SDS011;68773;40.400;17.260;2023-08-24T11:05:58;9.90;;;6.07;;
52946;SDS011;68773;40.400;17.260;2023-08-24T11:11:18;10.18;;;5.95;;
52946;SDS011;68773;40.400;17.260;2023-08-24T11:16:38;8.55;;;5.43;;
52946;SDS011;68773;40.400;17.260;2023-08-24T11:19:06;7.50;;;5.47;;
52946;SDS011;68773;40.400;17.260;2023-08-24T11:21:33;6.63;;;5.32;;
52946;SDS011;68773;40.400;17.260;2023-08-24T11:24:00;8.30;;;5.70;;
52946;SDS011;68773;40.400;17.260;2023-08-24T11:26:26;8.77;;;5.55;;
52946;SDS011;68773;40.400;17.260;2023-08-24T11:28:52;7.60;;;5.47;;
52946;SDS011;68773;40.400;17.260;2023-08-24T11:31:20;6.93;;;5.57;;
52946;SDS011;68773;40.400;17.260;2023-08-24T11:33:46;8.55;;;5.45;;
52946;SDS011;68773;40.400;17.260;2023-08-24T11:36:12;5.97;;;4.93;;
52946;SDS011;68773;40.400;17.260;2023-08-24T11:38:41;8.75;;;5.55;;
52946;SDS011;68773;40.400;17.260;2023-08-24T11:41:12;10.50;;;5.65;;
52946;SDS011;68773;40.400;17.260;2023-08-24T11:43:38;9.65;;;5.03;;
52946;SDS011;68773;40.400;17.260;2023-08-24T11:46:04;6.75;;;5.30;;
52946;SDS011;68773;40.400;17.260;2023-08-24T11:48:30;7.32;;;5.07;;
52946;SDS011;68773;40.400;17.260;2023-08-24T11:50:57;8.95;;;5.47;;
52946;SDS011;68773;40.400;17.260;2023-08-24T11:53:23;5.63;;;5.03;;
52946;SDS011;68773;40.400;17.260;2023-08-24T11:55:53;7.13;;;4.95;;
52946;SDS011;68773;40.400;17.260;2023-08-24T11:58:19;7.18;;;4.88;;
52946;SDS011;68773;40.400;17.260;2023-08-24T12:00:45;6.63;;;5.13;;
52946;SDS011;68773;40.400;17.260;2023-08-24T12:03:12;8.05;;;5.38;;
52946;SDS011;68773;40.400;17.260;2023-08-24T12:05:38;9.10;;;5.07;;
52946;SDS011;68773;40.400;17.260;2023-08-24T12:08:05;8.43;;;5.05;;
52946;SDS011;68773;40.400;17.260;2023-08-24T12:10:31;5.95;;;5.13;;
52946;SDS011;68773;40.400;17.260;2023-08-24T12:13:02;8.05;;;5.45;;
52946;SDS011;68773;40.400;17.260;2023-08-24T12:15:30;6.40;;;4.88;;
52946;SDS011;68773;40.400;17.260;2023-08-24T12:17:56;5.78;;;5.18;;
52946;SDS011;68773;40.400;17.260;2023-08-24T12:20:22;5.65;;;4.60;;
52946;SDS011;68773;40.400;17.260;2023-08-24T12:22:52;7.68;;;5.43;;
52946;SDS011;68773;40.400;17.260;2023-08-24T12:25:18;7.38;;;5.20;;
52946;SDS011;68773;40.400;17.260;2023-08-24T12:27:47;7.05;;;5.18;;
52946;SDS011;68773;40.400;17.260;2023-08-24T12:30:13;7.20;;;4.90;;
52946;SDS011;68773;40.400;17.260;2023-08-24T12:32:43;8.15;;;5.10;;
52946;SDS011;68773;40.400;17.260;2023-08-24T12:35:14;4.97;;;4.47;;
52946;SDS011;68773;40.400;17.260;2023-08-24T12:37:40;5.90;;;4.78;;
52946;SDS011;68773;40.400;17.260;2023-08-24T12:40:07;7.50;;;5.07;;
52946;SDS011;68773;40.400;17.260;2023-08-24T12:42:33;5.50;;;5.00;;
52946;SDS011;68773;40.400;17.260;2023-08-24T12:44:59;8.00;;;5.22;;
52946;SDS011;68773;40.400;17.260;2023-08-24T12:47:26;5.40;;;4.90;;
52946;SDS011;68773;40.400;17.260;2023-08-24T12:49:52;7.82;;;4.78;;
52946;SDS011;68773;40.400;17.260;2023-08-24T12:52:19;10.00;;;5.60;;
52946;SDS011;68773;40.400;17.260;2023-08-24T12:54:45;6.57;;;4.80;;
52946;SDS011;68773;40.400;17.260;2023-08-24T12:57:11;6.70;;;5.20;;
52946;SDS011;68773;40.400;17.260;2023-08-24T12:59:37;6.40;;;5.22;;
52946;SDS011;68773;40.400;17.260;2023-08-24T13:02:04;5.82;;;5.22;;
52946;SDS011;68773;40.400;17.260;2023-08-24T13:04:30;6.93;;;5.30;;
52946;SDS011;68773;40.400;17.260;2023-08-24T13:06:57;6.30;;;5.55;;
52946;SDS011;68773;40.400;17.260;2023-08-24T13:09:23;6.47;;;5.28;;
52946;SDS011;68773;40.400;17.260;2023-08-24T13:11:49;7.20;;;4.97;;
52946;SDS011;68773;40.400;17.260;2023-08-24T13:14:15;7.28;;;5.63;;
52946;SDS011;68773;40.400;17.260;2023-08-24T13:16:41;5.40;;;4.75;;
52946;SDS011;68773;40.400;17.260;2023-08-24T13:19:07;6.03;;;4.78;;
52946;SDS011;68773;40.400;17.260;2023-08-24T13:21:34;8.07;;;6.63;;
52946;SDS011;68773;40.400;17.260;2023-08-24T13:24:00;8.25;;;6.45;;
52946;SDS011;68773;40.400;17.260;2023-08-24T13:26:26;11.10;;;6.57;;
52946;SDS011;68773;40.400;17.260;2023-08-24T13:28:52;9.70;;;6.40;;
52946;SDS011;68773;40.400;17.260;2023-08-24T13:31:18;12.23;;;7.30;;
52946;SDS011;68773;40.400;17.260;2023-08-24T13:33:44;10.90;;;7.68;;
52946;SDS011;68773;40.400;17.260;2023-08-24T13:36:10;13.27;;;7.47;;
52946;SDS011;68773;40.400;17.260;2023-08-24T13:38:37;16.95;;;8.45;;
52946;SDS011;68773;40.400;17.260;2023-08-24T13:41:03;8.73;;;7.82;;
52946;SDS011;68773;40.400;17.260;2023-08-24T13:43:29;12.27;;;7.18;;
52946;SDS011;68773;40.400;17.260;2023-08-24T13:45:55;11.45;;;7.38;;
52946;SDS011;68773;40.400;17.260;2023-08-24T13:48:21;14.93;;;7.82;;
52946;SDS011;68773;40.400;17.260;2023-08-24T13:50:49;11.15;;;7.85;;
52946;SDS011;68773;40.400;17.260;2023-08-24T13:53:17;10.40;;;7.30;;
52946;SDS011;68773;40.400;17.260;2023-08-24T13:55:43;9.02;;;7.38;;
52946;SDS011;68773;40.400;17.260;2023-08-24T13:58:09;7.90;;;6.97;;
52946;SDS011;68773;40.400;17.260;2023-08-24T14:00:36;11.35;;;6.75;;
52946;SDS011;68773;40.400;17.260;2023-08-24T14:03:02;9.00;;;6.95;;
52946;SDS011;68773;40.400;17.260;2023-08-24T14:05:29;8.30;;;7.30;;
52946;SDS011;68773;40.400;17.260;2023-08-24T14:07:55;8.95;;;7.07;;
52946;SDS011;68773;40.400;17.260;2023-08-24T14:10:21;9.93;;;7.03;;
52946;SDS011;68773;40.400;17.260;2023-08-24T14:12:47;9.23;;;7.20;;
52946;SDS011;68773;40.400;17.260;2023-08-24T14:15:13;7.97;;;7.00;;
52946;SDS011;68773;40.400;17.260;2023-08-24T14:17:39;7.95;;;6.90;;
52946;SDS011;68773;40.400;17.260;2023-08-24T14:20:05;10.63;;;7.30;;
52946;SDS011;68773;40.400;17.260;2023-08-24T14:22:35;7.95;;;7.00;;
52946;SDS011;68773;40.400;17.260;2023-08-24T14:25:01;9.45;;;6.85;;
52946;SDS011;68773;40.400;17.260;2023-08-24T14:27:27;9.02;;;6.80;;
52946;SDS011;68773;40.400;17.260;2023-08-24T14:29:53;9.13;;;6.72;;
52946;SDS011;68773;40.400;17.260;2023-08-24T14:32:19;9.27;;;7.28;;
52946;SDS011;68773;40.400;17.260;2023-08-24T14:34:47;14.25;;;7.82;;
52946;SDS011;68773;40.400;17.260;2023-08-24T14:37:14;9.77;;;7.85;;